createdAt,value
2019-03-30T00:00:02.797Z,6.26
2019-03-30T00:02:31.535Z,6.27
2019-03-30T00:05:00.286Z,6.21
2019-03-30T00:07:29.033Z,5.96
2019-03-30T00:09:57.805Z,6.16
2019-03-30T00:12:26.546Z,6.17
2019-03-30T00:14:55.308Z,6.15
2019-03-30T00:17:24.056Z,6.11
2019-03-30T00:19:52.923Z,6.19
2019-03-30T00:22:21.747Z,6.19
2019-03-30T00:24:50.512Z,6.16
2019-03-30T00:27:19.302Z,6.10
2019-03-30T00:29:48.037Z,5.99
2019-03-30T00:32:16.929Z,6.03
2019-03-30T00:34:45.647Z,5.95
2019-03-30T00:37:14.380Z,5.84
2019-03-30T00:39:43.150Z,5.86
2019-03-30T00:42:11.925Z,5.80
2019-03-30T00:44:40.887Z,5.76
2019-03-30T00:47:09.634Z,5.66
2019-03-30T00:49:48.478Z,5.59
2019-03-30T00:52:08.929Z,5.59
2019-03-30T00:54:37.677Z,5.54
2019-03-30T00:57:06.431Z,5.55
2019-03-30T00:59:35.200Z,5.54
2019-03-30T01:02:03.989Z,5.52
2019-03-30T01:04:32.722Z,5.42
2019-03-30T01:07:01.474Z,5.63
2019-03-30T01:09:30.225Z,5.63
2019-03-30T01:11:58.981Z,5.57
2019-03-30T01:14:27.748Z,5.43
2019-03-30T01:16:56.675Z,5.37
2019-03-30T01:19:25.424Z,5.41
2019-03-30T01:21:56.239Z,5.28
2019-03-30T01:24:24.707Z,5.25
2019-03-30T01:26:53.514Z,5.25
2019-03-30T01:29:22.293Z,5.20
2019-03-30T01:31:51.050Z,5.19
2019-03-30T01:34:19.857Z,5.20
2019-03-30T01:36:48.596Z,5.19
2019-03-30T01:39:17.344Z,5.12
2019-03-30T01:41:46.100Z,5.16
2019-03-30T01:44:14.859Z,5.05
2019-03-30T01:46:43.622Z,5.00
2019-03-30T01:49:12.609Z,5.07
2019-03-30T01:51:41.355Z,5.11
2019-03-30T01:54:10.115Z,5.19
2019-03-30T01:56:38.887Z,5.11
2019-03-30T01:59:07.710Z,5.14
2019-03-30T02:01:36.578Z,5.11
2019-03-30T02:04:05.316Z,5.10
2019-03-30T02:06:34.054Z,5.01
2019-03-30T02:09:02.830Z,5.12
2019-03-30T02:11:31.589Z,5.09
2019-03-30T02:14:00.365Z,5.18
2019-03-30T02:16:29.107Z,5.27
2019-03-30T02:18:57.863Z,5.34
2019-03-30T02:21:26.610Z,5.21
2019-03-30T02:23:55.377Z,4.92
2019-03-30T02:26:24.105Z,4.97
2019-03-30T02:28:52.873Z,4.87
2019-03-30T02:31:21.676Z,4.85
2019-03-30T02:33:50.407Z,4.90
2019-03-30T02:36:19.194Z,4.91
2019-03-30T02:38:48.011Z,4.89
2019-03-30T02:41:16.776Z,4.86
2019-03-30T02:43:45.517Z,4.71
2019-03-30T02:46:14.315Z,4.70
2019-03-30T02:48:43.052Z,4.73
2019-03-30T02:51:11.840Z,4.84
2019-03-30T02:53:40.614Z,4.76
2019-03-30T02:56:09.360Z,4.86
2019-03-30T02:58:38.085Z,4.98
2019-03-30T03:01:06.852Z,4.90
2019-03-30T03:03:35.714Z,4.73
2019-03-30T03:06:04.462Z,4.71
2019-03-30T03:08:33.313Z,4.63
2019-03-30T03:11:02.104Z,4.68
2019-03-30T03:13:30.884Z,4.70
2019-03-30T03:15:59.650Z,4.72
2019-03-30T03:18:28.422Z,4.75
2019-03-30T03:21:07.483Z,4.64
2019-03-30T03:23:27.693Z,4.60
2019-03-30T03:25:56.449Z,4.50
2019-03-30T03:28:25.209Z,4.52
2019-03-30T03:30:53.992Z,4.45
2019-03-30T03:33:22.794Z,4.51
2019-03-30T03:35:51.522Z,4.44
2019-03-30T03:38:20.280Z,4.49
2019-03-30T03:40:49.008Z,4.55
2019-03-30T03:43:17.768Z,4.59
2019-03-30T03:45:46.498Z,4.54
2019-03-30T03:48:15.273Z,4.42
2019-03-30T03:50:45.780Z,4.21
2019-03-30T03:53:17.123Z,4.08
2019-03-30T03:55:46.171Z,4.02
2019-03-30T03:58:17.200Z,3.96
2019-03-30T04:00:47.727Z,4.00
2019-03-30T04:03:18.025Z,3.82
2019-03-30T04:05:49.814Z,3.93
2019-03-30T04:08:18.582Z,3.99
2019-03-30T04:10:48.804Z,4.03
2019-03-30T04:13:17.542Z,4.09
2019-03-30T04:15:46.407Z,3.65
2019-03-30T04:18:15.152Z,3.90
2019-03-30T04:20:43.983Z,3.88
2019-03-30T04:23:13.002Z,3.85
2019-03-30T04:25:41.738Z,3.87
2019-03-30T04:28:10.636Z,3.95
2019-03-30T04:30:39.360Z,3.91
2019-03-30T04:33:08.089Z,3.86
2019-03-30T04:35:36.849Z,3.88
2019-03-30T04:38:05.609Z,3.87
2019-03-30T04:40:34.348Z,3.95
2019-03-30T04:43:03.100Z,3.89
2019-03-30T04:45:31.827Z,3.98
2019-03-30T04:48:00.697Z,3.85
2019-03-30T04:50:29.428Z,3.80
2019-03-30T04:52:58.153Z,3.75
2019-03-30T04:55:26.926Z,3.65
2019-03-30T04:57:57.821Z,3.60
2019-03-30T05:00:26.214Z,3.54
2019-03-30T05:02:57.160Z,3.55
2019-03-30T05:05:26.083Z,3.55
2019-03-30T05:07:54.948Z,3.49
2019-03-30T05:10:23.683Z,3.56
2019-03-30T05:12:52.825Z,3.60
2019-03-30T05:15:21.591Z,3.42
2019-03-30T05:17:50.384Z,3.41
2019-03-30T05:20:19.131Z,3.30
2019-03-30T05:22:51.103Z,3.28
2019-03-30T05:25:18.346Z,3.32
2019-03-30T05:27:47.086Z,3.23
2019-03-30T05:30:15.960Z,3.40
2019-03-30T05:32:44.703Z,3.66
2019-03-30T05:35:13.482Z,3.86
2019-03-30T05:37:42.217Z,4.15
2019-03-30T05:40:19.060Z,4.32
2019-03-30T05:42:48.122Z,4.71
2019-03-30T05:45:16.876Z,5.15
2019-03-30T05:47:45.617Z,5.65
2019-03-30T05:50:15.856Z,6.01
2019-03-30T05:52:44.620Z,6.11
2019-03-30T05:55:13.492Z,6.65
2019-03-30T05:57:44.621Z,6.80
2019-03-30T06:00:15.933Z,7.31
2019-03-30T06:02:45.587Z,7.82
2019-03-30T06:05:14.349Z,8.43
2019-03-30T06:07:43.113Z,9.10
2019-03-30T06:10:11.985Z,9.70
2019-03-30T06:12:40.732Z,9.69
2019-03-30T06:15:09.650Z,9.76
2019-03-30T06:17:38.427Z,9.38
2019-03-30T06:20:09.853Z,9.00
2019-03-30T06:22:40.408Z,9.27
2019-03-30T06:25:10.831Z,9.21
2019-03-30T06:27:39.679Z,9.20
2019-03-30T06:30:28.361Z,9.24
2019-03-30T06:32:57.167Z,9.49
2019-03-30T06:35:26.080Z,10.26
2019-03-30T06:37:54.929Z,10.72
2019-03-30T06:40:23.675Z,11.17
2019-03-30T06:42:52.334Z,12.01
2019-03-30T06:45:21.121Z,11.95
2019-03-30T06:47:49.919Z,12.52
2019-03-30T06:50:18.714Z,12.11
2019-03-30T06:52:57.540Z,13.07
2019-03-30T06:55:18.026Z,12.75
2019-03-30T06:57:46.772Z,13.36
2019-03-30T07:00:17.290Z,14.05
2019-03-30T07:02:46.866Z,14.19
2019-03-30T07:05:15.700Z,13.89
2019-03-30T07:07:45.937Z,11.81
2019-03-30T07:10:15.989Z,12.67
2019-03-30T07:12:47.696Z,11.56
2019-03-30T07:15:16.449Z,12.47
2019-03-30T07:17:48.884Z,12.31
2019-03-30T07:20:29.194Z,14.05
2019-03-30T07:23:11.250Z,14.33
2019-03-30T07:25:29.356Z,14.30
2019-03-30T07:27:58.090Z,13.99
2019-03-30T07:30:26.863Z,13.90
2019-03-30T07:32:55.603Z,14.02
2019-03-30T07:35:24.472Z,13.54
2019-03-30T07:37:55.150Z,14.41
2019-03-30T07:40:26.674Z,13.67
2019-03-30T07:42:55.445Z,14.01
2019-03-30T07:45:24.193Z,13.50
2019-03-30T07:47:53.315Z,13.09
2019-03-30T07:50:22.051Z,13.14
2019-03-30T07:52:50.809Z,13.68
2019-03-30T07:55:20.587Z,13.23
2019-03-30T07:57:49.847Z,13.29
2019-03-30T08:00:20.075Z,13.85
2019-03-30T08:02:48.845Z,14.35
2019-03-30T08:05:17.612Z,14.52
2019-03-30T08:07:46.347Z,14.01
2019-03-30T08:10:17.531Z,14.61
2019-03-30T08:12:49.182Z,14.71
2019-03-30T08:15:22.646Z,14.36
2019-03-30T08:17:57.871Z,15.01
2019-03-30T08:20:35.645Z,16.02
2019-03-30T08:23:05.857Z,16.00
2019-03-30T08:25:34.739Z,15.19
2019-03-30T08:28:03.558Z,15.24
2019-03-30T08:30:32.340Z,15.96
2019-03-30T08:33:02.509Z,15.47
2019-03-30T08:35:31.309Z,15.94
2019-03-30T08:38:00.119Z,16.34
2019-03-30T08:40:45.302Z,16.34
2019-03-30T08:43:14.398Z,15.87
2019-03-30T08:45:43.187Z,16.60
2019-03-30T08:48:13.200Z,17.12
2019-03-30T08:50:41.986Z,17.46
2019-03-30T08:53:10.903Z,16.83
2019-03-30T08:55:39.661Z,17.27
2019-03-30T08:58:08.631Z,17.59
2019-03-30T09:00:42.481Z,18.63
2019-03-30T09:03:11.369Z,18.43
2019-03-30T09:05:40.271Z,18.51
2019-03-30T09:08:09.071Z,18.72
2019-03-30T09:10:37.844Z,17.87
2019-03-30T09:13:06.691Z,17.87
2019-03-30T09:15:35.527Z,17.97
2019-03-30T09:18:04.463Z,18.66
2019-03-30T09:20:33.327Z,19.36
2019-03-30T09:23:02.228Z,17.58
2019-03-30T09:25:31.340Z,18.82
2019-03-30T09:28:00.242Z,19.06
2019-03-30T09:30:29.012Z,18.46
2019-03-30T09:32:57.929Z,18.42
2019-03-30T09:35:26.849Z,18.49
2019-03-30T09:37:55.630Z,18.90
2019-03-30T09:40:24.371Z,19.21
2019-03-30T09:42:53.144Z,19.30
2019-03-30T09:45:21.935Z,19.42
2019-03-30T09:47:50.698Z,19.17
2019-03-30T09:50:19.469Z,19.41
2019-03-30T09:52:48.365Z,19.23
2019-03-30T09:55:17.105Z,19.15
2019-03-30T09:57:45.845Z,19.09
2019-03-30T10:00:14.717Z,19.40
2019-03-30T10:02:43.890Z,19.08
2019-03-30T10:05:12.786Z,19.56
2019-03-30T10:07:41.545Z,19.18
2019-03-30T10:10:12.910Z,19.20
2019-03-30T10:12:41.763Z,19.26
2019-03-30T10:15:11.884Z,19.18
2019-03-30T10:17:40.733Z,19.17
2019-03-30T10:20:11.213Z,19.36
2019-03-30T10:22:42.129Z,19.71
2019-03-30T10:25:10.893Z,20.22
2019-03-30T10:27:40.707Z,19.29
2019-03-30T10:30:11.935Z,19.71
2019-03-30T10:32:40.969Z,19.73
2019-03-30T10:35:09.749Z,20.10
2019-03-30T10:37:38.502Z,19.03
2019-03-30T10:40:10.171Z,19.83
2019-03-30T10:42:38.937Z,19.50
2019-03-30T10:45:09.136Z,20.77
2019-03-30T10:47:37.896Z,21.41
2019-03-30T10:50:10.016Z,20.70
2019-03-30T10:52:38.784Z,19.87
2019-03-30T10:55:07.517Z,19.49
2019-03-30T10:57:36.471Z,19.00
2019-03-30T11:00:09.122Z,19.57
2019-03-30T11:02:39.784Z,19.55
2019-03-30T11:05:09.998Z,18.51
2019-03-30T11:07:38.852Z,17.96
2019-03-30T11:10:08.167Z,18.33
2019-03-30T11:12:36.935Z,18.86
2019-03-30T11:15:07.288Z,19.41
2019-03-30T11:17:37.163Z,20.01
2019-03-30T11:20:06.632Z,19.52
2019-03-30T11:22:35.606Z,19.90
2019-03-30T11:25:07.629Z,20.43
2019-03-30T11:27:36.110Z,19.91
2019-03-30T11:30:07.174Z,20.08
2019-03-30T11:32:38.516Z,19.97
2019-03-30T11:35:08.739Z,20.64
2019-03-30T11:37:37.567Z,21.01
2019-03-30T11:40:08.142Z,21.00
2019-03-30T11:42:37.050Z,20.87
2019-03-30T11:45:07.506Z,20.03
2019-03-30T11:47:37.242Z,19.69
2019-03-30T11:50:08.542Z,19.18
2019-03-30T11:52:39.256Z,19.56
2019-03-30T11:55:21.069Z,20.37
2019-03-30T11:57:39.344Z,20.21
2019-03-30T12:00:09.776Z,19.57
2019-03-30T12:02:38.544Z,19.98
2019-03-30T12:05:08.690Z,20.18
2019-03-30T12:07:39.275Z,20.80
2019-03-30T12:10:09.105Z,20.62
2019-03-30T12:12:37.859Z,20.27
2019-03-30T12:15:10.217Z,20.18
2019-03-30T12:17:41.234Z,20.21
2019-03-30T12:20:11.376Z,20.69
2019-03-30T12:22:40.519Z,20.78
2019-03-30T12:25:09.400Z,20.69
2019-03-30T12:27:38.210Z,20.42
2019-03-30T12:30:08.608Z,20.38
2019-03-30T12:32:37.435Z,20.20
2019-03-30T12:35:07.777Z,20.13
2019-03-30T12:37:36.736Z,20.48
2019-03-30T12:40:07.580Z,20.54
2019-03-30T12:42:36.437Z,20.46
2019-03-30T12:45:07.638Z,21.32
2019-03-30T12:47:36.406Z,21.74
2019-03-30T12:50:07.039Z,22.15
2019-03-30T12:52:35.789Z,20.92
2019-03-30T12:55:05.355Z,20.98
2019-03-30T12:57:34.244Z,20.69
2019-03-30T13:00:03.639Z,21.08
2019-03-30T13:02:32.545Z,21.54
2019-03-30T13:05:01.464Z,21.44
2019-03-30T13:07:30.255Z,21.36
2019-03-30T13:09:59.061Z,21.65
2019-03-30T13:12:27.802Z,21.39
2019-03-30T13:14:56.598Z,20.86
2019-03-30T13:17:25.419Z,20.87
2019-03-30T13:19:54.490Z,20.65
2019-03-30T13:22:23.236Z,20.71
2019-03-30T13:24:52.067Z,20.35
2019-03-30T13:27:20.832Z,20.53
2019-03-30T13:29:49.575Z,20.49
2019-03-30T13:32:18.347Z,20.53
2019-03-30T13:34:47.231Z,20.45
2019-03-30T13:37:21.287Z,20.48
2019-03-30T13:39:50.066Z,20.38
2019-03-30T13:42:18.846Z,20.40
2019-03-30T13:44:47.673Z,20.12
2019-03-30T13:47:16.444Z,19.85
2019-03-30T13:49:45.250Z,19.59
2019-03-30T13:52:14.056Z,19.63
2019-03-30T13:54:43.000Z,19.77
2019-03-30T13:57:11.741Z,19.75
2019-03-30T13:59:40.501Z,19.69
2019-03-30T14:02:09.280Z,19.39
2019-03-30T14:04:38.028Z,19.18
2019-03-30T14:07:06.848Z,19.11
2019-03-30T14:09:35.608Z,19.16
2019-03-30T14:12:05.388Z,19.15
2019-03-30T14:14:34.250Z,18.81
2019-03-30T14:17:03.031Z,19.03
2019-03-30T14:19:31.854Z,18.90
2019-03-30T14:22:00.624Z,18.90
2019-03-30T14:24:29.402Z,18.99
2019-03-30T14:26:58.221Z,19.48
2019-03-30T14:29:27.089Z,20.11
2019-03-30T14:31:55.898Z,20.42
2019-03-30T14:34:24.629Z,20.66
2019-03-30T14:36:53.404Z,20.59
2019-03-30T14:39:22.224Z,20.11
2019-03-30T14:41:51.184Z,19.60
2019-03-30T14:44:19.930Z,19.51
2019-03-30T14:46:48.845Z,19.33
2019-03-30T14:49:17.660Z,19.11
2019-03-30T14:51:46.417Z,19.50
2019-03-30T14:54:15.223Z,19.90
2019-03-30T14:56:45.850Z,19.99
2019-03-30T14:59:14.852Z,20.21
2019-03-30T15:01:43.594Z,20.33
2019-03-30T15:04:12.622Z,20.32
2019-03-30T15:06:41.412Z,20.30
2019-03-30T15:09:10.234Z,19.97
2019-03-30T15:11:39.033Z,19.85
2019-03-30T15:14:07.783Z,19.81
2019-03-30T15:16:36.519Z,19.71
2019-03-30T15:19:05.474Z,19.67
2019-03-30T15:21:34.320Z,19.54
2019-03-30T15:24:03.126Z,19.47
2019-03-30T15:26:31.892Z,19.39
2019-03-30T15:29:00.661Z,19.24
2019-03-30T15:31:29.453Z,19.05
2019-03-30T15:33:58.193Z,19.04
2019-03-30T15:36:26.936Z,18.85
2019-03-30T15:38:55.698Z,18.50
2019-03-30T15:41:24.500Z,18.33
2019-03-30T15:43:53.282Z,18.31
2019-03-30T15:46:22.026Z,18.32
2019-03-30T15:48:50.924Z,18.42
2019-03-30T15:51:19.675Z,18.50
2019-03-30T15:53:48.414Z,18.65
2019-03-30T15:56:17.227Z,18.93
2019-03-30T15:58:45.966Z,19.15
2019-03-30T16:01:14.766Z,19.49
2019-03-30T16:03:43.544Z,19.77
2019-03-30T16:06:12.320Z,19.83
2019-03-30T16:08:41.192Z,19.78
2019-03-30T16:11:09.973Z,19.80
2019-03-30T16:13:39.317Z,19.54
2019-03-30T16:16:08.185Z,19.16
2019-03-30T16:18:36.929Z,18.83
2019-03-30T16:21:05.668Z,18.60
2019-03-30T16:23:34.442Z,18.45
2019-03-30T16:26:03.300Z,18.30
2019-03-30T16:28:32.087Z,18.13
2019-03-30T16:31:00.824Z,18.12
2019-03-30T16:33:29.986Z,18.08
2019-03-30T16:36:02.417Z,18.04
2019-03-30T16:38:29.451Z,18.11
2019-03-30T16:40:58.303Z,18.11
2019-03-30T16:43:27.132Z,18.00
2019-03-30T16:45:55.903Z,18.00
2019-03-30T16:48:24.689Z,17.72
2019-03-30T16:50:53.514Z,17.44
2019-03-30T16:53:22.347Z,17.30
2019-03-30T16:55:51.146Z,17.26
2019-03-30T16:58:20.028Z,17.12
2019-03-30T17:00:56.416Z,17.09
2019-03-30T17:03:23.085Z,17.00
2019-03-30T17:05:52.978Z,16.87
2019-03-30T17:08:26.670Z,16.80
2019-03-30T17:10:56.090Z,16.77
2019-03-30T17:13:24.917Z,16.65
2019-03-30T17:15:53.734Z,16.62
2019-03-30T17:18:22.490Z,16.59
2019-03-30T17:20:51.274Z,16.59
2019-03-30T17:23:20.355Z,16.53
2019-03-30T17:25:50.003Z,16.47
2019-03-30T17:28:18.777Z,16.42
2019-03-30T17:30:47.531Z,16.36
2019-03-30T17:33:16.278Z,16.26
2019-03-30T17:35:45.038Z,16.20
2019-03-30T17:38:13.981Z,16.14
2019-03-30T17:40:42.760Z,16.06
2019-03-30T17:43:11.619Z,16.01
2019-03-30T17:45:40.383Z,16.00
2019-03-30T17:48:09.200Z,15.94
2019-03-30T17:50:38.029Z,16.03
2019-03-30T17:53:06.861Z,15.94
2019-03-30T17:55:35.907Z,15.91
2019-03-30T17:58:12.831Z,15.88
2019-03-30T18:00:35.944Z,15.62
2019-03-30T18:03:05.442Z,15.67
2019-03-30T18:05:34.207Z,15.67
2019-03-30T18:08:03.069Z,15.73
2019-03-30T18:10:31.986Z,15.71
2019-03-30T18:13:00.787Z,15.60
2019-03-30T18:15:29.589Z,15.60
2019-03-30T18:17:58.443Z,15.49
2019-03-30T18:20:27.232Z,15.39
2019-03-30T18:22:56.003Z,15.24
2019-03-30T18:25:24.754Z,15.19
2019-03-30T18:27:53.590Z,15.05
2019-03-30T18:30:31.033Z,15.03
2019-03-30T18:33:00.079Z,14.99
2019-03-30T18:35:30.590Z,14.95
2019-03-30T18:38:01.566Z,14.95
2019-03-30T18:40:36.002Z,14.86
2019-03-30T18:43:05.347Z,14.73
2019-03-30T18:45:34.195Z,14.65
2019-03-30T18:48:19.014Z,14.65
2019-03-30T18:50:48.877Z,14.59
2019-03-30T18:53:18.328Z,14.48
2019-03-30T18:55:47.071Z,14.42
2019-03-30T18:58:15.972Z,14.37
2019-03-30T19:00:44.802Z,14.36
2019-03-30T19:03:13.484Z,14.32
2019-03-30T19:05:42.366Z,14.23
2019-03-30T19:08:11.024Z,14.18
2019-03-30T19:10:39.756Z,14.13
2019-03-30T19:13:08.526Z,14.06
2019-03-30T19:15:37.290Z,13.97
2019-03-30T19:18:06.063Z,13.98
2019-03-30T19:20:34.838Z,13.88
2019-03-30T19:23:03.713Z,13.90
2019-03-30T19:25:32.470Z,13.79
2019-03-30T19:28:14.503Z,13.66
2019-03-30T19:30:52.297Z,13.51
2019-03-30T19:33:21.407Z,13.46
2019-03-30T19:35:50.307Z,13.35
2019-03-30T19:38:19.161Z,13.29
2019-03-30T19:40:58.721Z,13.14
2019-03-30T19:46:14.957Z,12.95
2019-03-30T19:48:52.429Z,12.92
2019-03-30T19:51:28.608Z,12.85
2019-03-30T19:54:09.544Z,12.75
2019-03-30T19:56:39.045Z,12.65
2019-03-30T19:59:11.137Z,12.59
2019-03-30T20:01:38.911Z,12.50
2019-03-30T20:04:08.049Z,12.44
2019-03-30T20:06:37.086Z,12.31
2019-03-30T20:09:09.615Z,11.98
2019-03-30T20:11:38.587Z,12.12
2019-03-30T20:14:08.049Z,12.04
2019-03-30T20:16:36.872Z,11.98
2019-03-30T20:19:12.793Z,11.87
2019-03-30T20:21:36.788Z,11.83
2019-03-30T20:24:05.659Z,11.79
2019-03-30T20:26:34.938Z,11.61
2019-03-30T20:29:05.217Z,11.74
2019-03-30T20:31:34.335Z,11.66
2019-03-30T20:34:03.408Z,11.62
2019-03-30T20:36:35.090Z,11.55
2019-03-30T20:39:03.839Z,11.45
2019-03-30T20:41:33.275Z,11.37
2019-03-30T20:44:02.346Z,11.33
2019-03-30T20:46:31.306Z,11.27
2019-03-30T20:49:00.261Z,11.29
2019-03-30T20:51:29.058Z,11.28
2019-03-30T20:53:58.221Z,11.25
2019-03-30T20:56:27.066Z,11.14
2019-03-30T20:58:56.075Z,11.04
2019-03-30T21:01:24.883Z,11.05
2019-03-30T21:03:54.047Z,10.95
2019-03-30T21:06:22.809Z,11.02
2019-03-30T21:08:51.741Z,10.94
2019-03-30T21:11:21.120Z,10.76
2019-03-30T21:13:50.123Z,10.67
2019-03-30T21:16:19.168Z,10.43
2019-03-30T21:18:48.250Z,10.21
2019-03-30T21:21:17.376Z,10.09
2019-03-30T21:23:46.386Z,10.00
2019-03-30T21:26:15.244Z,9.95
2019-03-30T21:28:44.042Z,9.89
2019-03-30T21:31:12.780Z,9.75
2019-03-30T21:33:41.505Z,9.57
2019-03-30T21:36:10.348Z,9.42
2019-03-30T21:38:39.107Z,9.32
2019-03-30T21:41:08.440Z,9.28
2019-03-30T21:43:37.283Z,9.15
2019-03-30T21:46:06.085Z,9.08
2019-03-30T21:48:35.053Z,9.06
2019-03-30T21:51:03.908Z,8.76
2019-03-30T21:53:33.112Z,8.75
2019-03-30T21:56:02.472Z,8.80
2019-03-30T21:58:31.239Z,8.63
2019-03-30T22:01:02.922Z,8.60
2019-03-30T22:03:32.796Z,8.68
2019-03-30T22:06:01.531Z,8.77
2019-03-30T22:08:30.274Z,8.78
2019-03-30T22:10:59.040Z,8.76
2019-03-30T22:13:27.774Z,8.75
2019-03-30T22:15:56.540Z,8.55
2019-03-30T22:18:25.281Z,8.51
2019-03-30T22:20:54.050Z,8.37
2019-03-30T22:23:22.884Z,8.30
2019-03-30T22:25:51.880Z,8.20
2019-03-30T22:28:20.819Z,8.16
2019-03-30T22:30:49.899Z,8.08
2019-03-30T22:33:18.704Z,8.13
2019-03-30T22:35:47.487Z,8.11
2019-03-30T22:38:16.343Z,8.13
2019-03-30T22:40:45.175Z,8.13
2019-03-30T22:43:13.910Z,8.00
2019-03-30T22:45:42.684Z,7.98
2019-03-30T22:48:11.491Z,8.06
2019-03-30T22:50:40.390Z,8.09
2019-03-30T22:53:09.174Z,8.22
2019-03-30T22:55:38.022Z,8.33
2019-03-30T22:58:06.868Z,8.40
2019-03-30T23:00:43.046Z,8.39
2019-03-30T23:03:12.143Z,8.47
2019-03-30T23:05:40.883Z,8.50
2019-03-30T23:08:09.668Z,8.49
2019-03-30T23:10:38.548Z,8.43
2019-03-30T23:13:07.344Z,8.35
2019-03-30T23:15:36.165Z,8.32
2019-03-30T23:18:05.059Z,8.28
2019-03-30T23:20:34.241Z,8.09
2019-03-30T23:23:02.974Z,8.19
2019-03-30T23:25:31.756Z,8.16
2019-03-30T23:28:00.549Z,8.16
2019-03-30T23:30:29.310Z,8.14
2019-03-30T23:32:58.090Z,7.44
2019-03-30T23:35:26.889Z,8.07
2019-03-30T23:37:55.739Z,8.02
2019-03-30T23:40:24.573Z,7.95
2019-03-30T23:42:53.302Z,7.89
2019-03-30T23:45:22.251Z,7.86
2019-03-30T23:47:50.997Z,7.81
2019-03-30T23:50:19.765Z,7.76
2019-03-30T23:52:48.562Z,7.75
2019-03-30T23:55:17.316Z,7.67
2019-03-30T23:57:46.251Z,7.66
